CheckWX is a tool to help pilots better visualize weather data.  It is not intended as a substitute for an official pre-flight weather briefing.

02:15:13 UTC

LLSD TAF
Sde Dov Airport
Tel Aviv, Israel
TAF LLSD 182321Z 1900/1924 03005KT 7000 NSC PROB30 1903/1906 5000 BR BECMG 1907/1909 34015KT BECMG 1916/1918 03005KT BECMG 1920/1922 VRB03KT 5000 BR SCT007 TX21/1912Z TN12/1904Z

Mar-19@
00:00 UTC

Mar-19 @ 00:00 UTC

Mar-19@
07:00 UTC

Mar-19 @ 07:00 UTC

TAF LLSD 182321Z 1900/1924 03005KT 7000 NSC
Wind
  • 030° at 5 KTS
Cloud Levels
  • No significant clouds

Mar-19@
03:00 UTC

Mar-19 @ 03:00 UTC

Mar-19@
06:00 UTC

Mar-19 @ 06:00 UTC

PROB30 1903/1906 5000 BR

Probable - 30% Likelihood

Probable - 30% Likelihood during this time.

Conditions
Mist

Mar-19@
07:00 UTC

Mar-19 @ 07:00 UTC

Mar-19@
16:00 UTC

Mar-19 @ 16:00 UTC

BECMG 1907/1909 34015KT

Becoming

Becoming Conditions expected by Tue, Mar 19, 2019 @ 09:00 UTC

Wind
  • 340° at 15 KTS
Cloud Levels
  • No significant clouds

Mar-19@
16:00 UTC

Mar-19 @ 16:00 UTC

Mar-19@
20:00 UTC

Mar-19 @ 20:00 UTC

BECMG 1916/1918 03005KT

Becoming

Becoming Conditions expected by Tue, Mar 19, 2019 @ 18:00 UTC

Wind
  • 030° at 5 KTS
Cloud Levels
  • No significant clouds

Mar-19@
20:00 UTC

Mar-19 @ 20:00 UTC

Mar-20@
00:00 UTC

Mar-20 @ 00:00 UTC

BECMG 1920/1922 VRB03KT 5000 BR SCT007 TX21/1912Z TN12/1904Z

Becoming

Becoming Conditions expected by Tue, Mar 19, 2019 @ 22:00 UTC

Wind
  • Variable at 3 KTS
Conditions
Mist
Cloud Levels
  • Scattered at 700' AGL